Time;durP1;ratioP1;P1;durP2;ratioP2;P2;SDS_P1;SDS_P2;PMS_P1;PMS_P2;Temp;Humidity;BMP_temperature;BMP_pressure;BME280_temperature;BME280_humidity;BME280_pressure;Samples;Min_cycle;Max_cycle;Signal;HPM_P1;HPM_P2
2022/07/02 00:00:20;;;;;;;1.00;0.40;;;13.40;99.90;;;;;;5031452;28;20021;-72
2022/07/02 00:02:51;;;;;;;1.60;0.40;;;13.30;99.90;;;;;;5031987;28;20088;-72
2022/07/02 00:05:20;;;;;;;1.48;0.40;;;13.40;99.90;;;;;;5015055;28;20041;-72
2022/07/02 00:07:46;;;;;;;0.90;0.40;;;13.40;99.90;;;;;;5034159;28;20029;-72
2022/07/02 00:10:14;;;;;;;1.15;0.50;;;13.30;99.90;;;;;;5012739;28;20046;-72
2022/07/02 00:12:40;;;;;;;1.92;0.40;;;13.40;99.90;;;;;;5032233;28;20032;-71
2022/07/02 00:15:06;;;;;;;1.25;0.40;;;13.40;99.90;;;;;;5012814;28;20025;-72
2022/07/02 00:17:33;;;;;;;1.20;0.40;;;13.10;99.90;;;;;;5033431;28;20371;-72
2022/07/02 00:20:01;;;;;;;2.60;0.40;;;13.20;99.90;;;;;;5031972;28;20141;-72
2022/07/02 00:22:28;;;;;;;1.92;0.50;;;13.20;99.90;;;;;;5015935;28;20274;-71
2022/07/02 00:24:53;;;;;;;1.40;0.50;;;13.20;99.90;;;;;;5031841;28;20055;-72
2022/07/02 00:27:19;;;;;;;1.65;0.57;;;13.10;99.90;;;;;;5019751;28;20124;-72
2022/07/02 00:30:00;;;;;;;1.02;0.52;;;13.10;99.90;;;;;;4998910;28;20033;-73
2022/07/02 00:32:28;;;;;;;2.03;0.50;;;13.10;99.90;;;;;;4996679;28;20039;-78
2022/07/02 00:34:56;;;;;;;1.00;0.45;;;13.00;99.90;;;;;;5032871;28;20075;-72
2022/07/02 00:37:22;;;;;;;2.38;0.43;;;13.00;99.90;;;;;;5030945;28;20111;-73
2022/07/02 00:39:48;;;;;;;0.90;0.40;;;13.10;99.90;;;;;;5020171;28;20025;-71
2022/07/02 00:42:14;;;;;;;0.93;0.40;;;13.10;99.90;;;;;;5004383;28;20048;-72
2022/07/02 00:44:41;;;;;;;2.25;0.47;;;12.90;99.90;;;;;;5020525;28;20030;-72
2022/07/02 00:47:09;;;;;;;0.80;0.40;;;12.90;99.90;;;;;;5021417;28;20501;-72
2022/07/02 00:49:36;;;;;;;0.80;0.40;;;12.90;99.90;;;;;;5030804;28;20057;-72
2022/07/02 00:52:03;;;;;;;1.17;0.45;;;13.00;99.90;;;;;;5030014;28;20037;-72
2022/07/02 00:54:29;;;;;;;1.25;0.40;;;12.90;99.90;;;;;;5029711;28;20021;-72
2022/07/02 00:56:55;;;;;;;1.23;0.50;;;12.90;99.90;;;;;;5029889;28;20032;-72
2022/07/02 00:59:25;;;;;;;0.93;0.50;;;12.90;99.90;;;;;;5021924;28;20090;-72
2022/07/02 01:01:51;;;;;;;;;;;12.90;99.90;;;;;;5015149;28;20140;-71
2022/07/02 01:04:17;;;;;;;2.42;0.60;;;12.80;99.90;;;;;;5015133;28;20901;-72
2022/07/02 01:06:44;;;;;;;1.23;0.40;;;12.80;99.90;;;;;;5030611;28;20060;-71
2022/07/02 01:12:00;;;;;;;0.98;0.40;;;12.70;99.90;;;;;;5031821;28;20053;-71
2022/07/02 01:14:26;;;;;;;0.93;0.40;;;12.60;99.90;;;;;;5030944;28;20117;-72
2022/07/02 01:16:52;;;;;;;1.20;0.50;;;12.70;99.90;;;;;;5014430;28;20029;-72
2022/07/02 01:19:20;;;;;;;1.25;0.40;;;12.70;99.90;;;;;;5014834;28;20060;-71
2022/07/02 01:22:25;;;;;;;2.92;0.45;;;12.60;99.90;;;;;;5030778;28;20036;-72
2022/07/02 01:24:53;;;;;;;1.40;0.47;;;12.60;99.90;;;;;;4958867;28;20518;-71
2022/07/02 01:27:20;;;;;;;1.63;0.55;;;12.50;99.90;;;;;;4959003;28;20432;-72
2022/07/02 01:29:46;;;;;;;1.23;0.50;;;12.60;99.90;;;;;;4958555;28;20381;-72
2022/07/02 01:32:13;;;;;;;1.00;0.40;;;12.60;99.90;;;;;;4958686;28;20443;-72
2022/07/02 01:34:41;;;;;;;2.35;0.60;;;12.60;99.90;;;;;;4943419;28;20058;-72
2022/07/02 01:37:09;;;;;;;2.85;0.50;;;12.70;99.90;;;;;;4958863;28;20067;-72
2022/07/02 01:39:36;;;;;;;1.40;0.50;;;12.60;99.90;;;;;;4958844;28;20035;-72
2022/07/02 01:42:02;;;;;;;1.73;0.50;;;12.60;99.90;;;;;;4958200;28;20055;-72
2022/07/02 01:44:28;;;;;;;1.40;0.50;;;12.60;99.90;;;;;;4955955;28;20502;-72
2022/07/02 01:46:53;;;;;;;2.20;0.50;;;12.60;99.90;;;;;;4942154;28;20086;-72
2022/07/02 01:49:19;;;;;;;2.45;0.50;;;12.70;99.90;;;;;;4942804;28;20141;-72
2022/07/02 01:51:45;;;;;;;1.52;0.60;;;12.70;99.90;;;;;;4959099;28;20034;-71
2022/07/02 01:54:11;;;;;;;2.25;0.70;;;12.70;99.90;;;;;;4958615;28;20042;-72
2022/07/02 01:56:37;;;;;;;1.50;0.52;;;12.70;99.90;;;;;;5018299;28;20054;-72
2022/07/02 01:59:03;;;;;;;1.83;0.50;;;12.70;99.90;;;;;;5014570;28;20033;-71
2022/07/02 02:01:29;;;;;;;2.38;0.63;;;12.50;99.90;;;;;;5029502;28;20544;-72
2022/07/02 02:03:55;;;;;;;2.08;0.60;;;12.60;99.90;;;;;;5014096;28;20033;-72
2022/07/02 02:06:21;;;;;;;2.80;0.70;;;12.60;99.90;;;;;;5020696;28;20055;-71
2022/07/02 02:08:47;;;;;;;2.58;0.60;;;12.60;99.90;;;;;;5012095;28;20040;-73
2022/07/02 02:11:13;;;;;;;1.25;0.50;;;12.60;99.90;;;;;;5029345;28;20534;-72
2022/07/02 02:13:39;;;;;;;2.40;0.60;;;12.60;99.90;;;;;;5031022;28;20033;-71
2022/07/02 02:16:05;;;;;;;2.35;0.55;;;12.60;99.90;;;;;;5030253;28;20561;-72
2022/07/02 02:18:30;;;;;;;1.63;0.52;;;12.60;99.90;;;;;;5015963;28;20161;-72
2022/07/02 02:20:56;;;;;;;1.48;0.60;;;12.50;99.90;;;;;;5016493;28;20444;-72
2022/07/02 02:23:22;;;;;;;1.40;0.60;;;12.40;99.90;;;;;;5014179;28;20068;-72
2022/07/02 02:25:47;;;;;;;3.20;0.80;;;12.30;99.90;;;;;;5030143;28;20574;-72
2022/07/02 02:28:13;;;;;;;1.73;0.50;;;12.40;99.90;;;;;;5019248;28;20571;-72
2022/07/02 02:30:39;;;;;;;1.77;0.50;;;12.40;99.90;;;;;;5030524;28;20045;-72
2022/07/02 02:33:04;;;;;;;1.00;0.50;;;12.40;99.90;;;;;;5030048;28;20424;-72
2022/07/02 02:35:30;;;;;;;1.98;0.47;;;12.40;99.90;;;;;;5018988;28;20052;-72
2022/07/02 02:37:56;;;;;;;1.75;0.50;;;12.40;99.90;;;;;;5029408;28;20029;-73
2022/07/02 02:40:21;;;;;;;1.20;0.50;;;12.30;99.90;;;;;;5017882;28;20033;-72
2022/07/02 02:42:47;;;;;;;1.08;0.40;;;12.30;99.90;;;;;;5013419;28;20543;-72
2022/07/02 02:45:13;;;;;;;1.65;0.50;;;12.20;99.90;;;;;;5029943;28;20484;-72
2022/07/02 02:47:39;;;;;;;1.80;0.52;;;12.20;99.90;;;;;;5014897;28;20094;-72
2022/07/02 02:50:05;;;;;;;2.60;0.68;;;12.30;99.90;;;;;;5026893;28;20040;-72
2022/07/02 02:52:31;;;;;;;1.20;0.50;;;12.30;99.90;;;;;;5015771;28;20134;-71
2022/07/02 02:54:57;;;;;;;1.73;0.47;;;12.20;99.90;;;;;;5033233;28;20076;-72
2022/07/02 02:57:22;;;;;;;0.93;0.45;;;12.20;99.90;;;;;;5033636;28;22126;-71
2022/07/02 02:59:48;;;;;;;1.20;0.50;;;12.20;99.90;;;;;;5032650;28;20060;-71
2022/07/02 03:02:14;;;;;;;1.23;0.50;;;12.30;99.90;;;;;;5021942;28;20421;-72
2022/07/02 03:04:39;;;;;;;2.80;0.50;;;12.30;99.90;;;;;;5016349;28;20048;-72
2022/07/02 03:07:05;;;;;;;0.90;0.50;;;12.30;99.90;;;;;;5034937;28;20456;-72
2022/07/02 03:09:31;;;;;;;1.02;0.55;;;12.30;99.90;;;;;;5033381;28;20108;-72
2022/07/02 03:11:57;;;;;;;1.23;0.40;;;12.20;99.90;;;;;;5033162;28;20469;-72
2022/07/02 03:14:22;;;;;;;2.63;0.60;;;12.10;99.90;;;;;;5018633;28;20051;-72
2022/07/02 03:16:48;;;;;;;1.30;0.50;;;12.10;99.90;;;;;;5032735;28;20025;-71
2022/07/02 03:19:14;;;;;;;1.55;0.40;;;12.10;99.90;;;;;;5017178;28;22329;-72
2022/07/02 03:21:40;;;;;;;2.63;0.60;;;12.20;99.90;;;;;;5032603;28;20029;-73
2022/07/02 03:24:06;;;;;;;1.40;0.40;;;12.20;99.90;;;;;;5001983;28;20172;-72
2022/07/02 03:26:31;;;;;;;1.00;0.40;;;12.20;99.90;;;;;;5017036;28;20025;-72
2022/07/02 03:28:57;;;;;;;2.00;0.50;;;12.20;99.90;;;;;;5016942;28;20429;-72
2022/07/02 03:31:23;;;;;;;2.20;0.70;;;12.20;99.90;;;;;;5016232;28;20038;-73
2022/07/02 03:33:48;;;;;;;3.03;0.43;;;12.10;99.90;;;;;;5016521;28;20048;-72
2022/07/02 03:36:14;;;;;;;1.42;0.60;;;12.20;99.90;;;;;;5017610;28;20029;-72
2022/07/02 03:38:40;;;;;;;2.17;0.40;;;12.10;99.90;;;;;;5032376;28;20484;-72
2022/07/02 03:41:06;;;;;;;1.00;0.40;;;12.10;99.90;;;;;;5021495;28;20037;-72
2022/07/02 03:43:32;;;;;;;0.95;0.38;;;12.20;99.90;;;;;;5028627;28;20136;-72
2022/07/02 03:45:58;;;;;;;1.45;0.50;;;12.30;99.90;;;;;;5020804;28;20042;-72
2022/07/02 03:48:24;;;;;;;1.45;0.40;;;12.30;99.90;;;;;;5016065;28;20028;-72
2022/07/02 03:50:50;;;;;;;2.05;0.50;;;12.30;99.90;;;;;;5015139;28;20036;-72
2022/07/02 03:53:16;;;;;;;1.73;0.40;;;12.20;99.90;;;;;;5016165;28;20032;-73
2022/07/02 03:55:42;;;;;;;1.02;0.40;;;12.20;99.90;;;;;;5015673;28;20494;-72
2022/07/02 03:58:07;;;;;;;1.48;0.43;;;12.30;99.90;;;;;;5030650;28;20041;-72
2022/07/02 04:00:33;;;;;;;1.33;0.40;;;12.30;99.90;;;;;;5014470;28;20037;-72
2022/07/02 04:02:59;;;;;;;0.98;0.50;;;12.30;99.90;;;;;;5031265;28;20143;-72
2022/07/02 04:05:24;;;;;;;3.22;0.60;;;12.50;99.90;;;;;;5020243;28;20053;-72
2022/07/02 04:07:50;;;;;;;1.27;0.50;;;12.40;99.90;;;;;;5029672;28;20544;-72
2022/07/02 04:10:16;;;;;;;1.58;0.60;;;12.40;99.90;;;;;;5030301;28;20401;-72
2022/07/02 04:12:42;;;;;;;1.20;0.40;;;12.40;99.90;;;;;;5031362;28;20040;-72
2022/07/02 04:15:09;;;;;;;1.02;0.40;;;12.50;99.90;;;;;;5014028;28;20041;-72
2022/07/02 04:17:35;;;;;;;1.08;0.40;;;12.60;99.90;;;;;;5029744;28;20484;-72
2022/07/02 04:20:00;;;;;;;1.67;0.60;;;12.70;99.90;;;;;;5030866;28;20115;-72
2022/07/02 04:22:28;;;;;;;1.15;0.40;;;12.90;99.90;;;;;;5029252;28;20049;-72
2022/07/02 04:24:54;;;;;;;2.30;0.45;;;13.00;99.90;;;;;;5032675;28;20056;-72
2022/07/02 04:27:20;;;;;;;1.13;0.55;;;13.10;99.90;;;;;;5015629;28;20163;-72
2022/07/02 04:29:46;;;;;;;2.15;0.50;;;13.30;99.90;;;;;;5032059;28;20079;-72
2022/07/02 04:32:12;;;;;;;3.53;0.50;;;13.40;99.90;;;;;;5015159;28;20512;-73
2022/07/02 04:34:37;;;;;;;1.33;0.40;;;13.50;99.90;;;;;;5032788;28;20132;-73
2022/07/02 04:37:03;;;;;;;1.50;0.50;;;13.60;99.90;;;;;;5030035;28;20024;-72
2022/07/02 04:39:29;;;;;;;1.70;0.50;;;13.60;99.90;;;;;;5021116;28;20488;-80
2022/07/02 04:41:55;;;;;;;2.60;0.60;;;13.80;99.90;;;;;;5020460;28;20445;-72
2022/07/02 04:44:21;;;;;;;2.67;0.68;;;13.90;99.90;;;;;;5030030;28;20075;-72
2022/07/02 04:46:46;;;;;;;1.00;0.50;;;13.90;99.90;;;;;;5019392;28;20357;-73
2022/07/02 04:49:12;;;;;;;1.38;0.60;;;13.80;99.90;;;;;;5001232;28;20128;-72
2022/07/02 04:51:38;;;;;;;2.45;0.50;;;13.90;99.90;;;;;;5014259;28;20112;-73
2022/07/02 04:54:03;;;;;;;2.13;0.60;;;14.00;99.90;;;;;;5030164;28;20540;-72
2022/07/02 04:56:29;;;;;;;1.77;0.60;;;14.20;99.90;;;;;;5019851;28;20675;-73
2022/07/02 04:58:55;;;;;;;2.15;0.50;;;14.40;99.90;;;;;;5013139;28;20446;-73
2022/07/02 05:01:23;;;;;;;1.70;0.93;;;14.60;99.90;;;;;;5014760;28;20521;-72
2022/07/02 05:03:51;;;;;;;3.13;0.50;;;14.80;99.90;;;;;;5014492;28;20127;-72
2022/07/02 05:06:17;;;;;;;1.75;0.70;;;14.90;99.90;;;;;;5032095;28;20125;-75
2022/07/02 05:08:43;;;;;;;1.63;0.60;;;15.00;99.90;;;;;;5024528;28;20121;-72
2022/07/02 05:11:09;;;;;;;1.15;0.52;;;15.10;99.90;;;;;;5025710;28;20033;-72
2022/07/02 05:13:34;;;;;;;1.60;0.70;;;15.30;99.90;;;;;;5000807;28;20429;-72
2022/07/02 05:16:00;;;;;;;2.00;0.70;;;15.40;99.90;;;;;;5023894;28;20745;-72
2022/07/02 05:18:26;;;;;;;1.83;0.65;;;15.50;99.90;;;;;;5011749;28;20470;-75
2022/07/02 05:20:52;;;;;;;2.53;0.88;;;15.70;99.90;;;;;;5016891;28;20521;-72
2022/07/02 05:23:17;;;;;;;2.95;0.85;;;15.80;99.90;;;;;;5024063;28;20176;-72
2022/07/02 05:25:43;;;;;;;3.92;0.70;;;15.80;99.90;;;;;;5013945;28;20063;-73
2022/07/02 05:28:09;;;;;;;1.40;0.70;;;15.90;99.90;;;;;;5023547;28;20120;-73
2022/07/02 05:30:35;;;;;;;2.35;0.80;;;16.00;99.90;;;;;;5020382;28;20421;-73
2022/07/02 05:33:00;;;;;;;3.83;1.33;;;16.10;99.90;;;;;;5022575;28;20039;-72
2022/07/02 05:35:26;;;;;;;2.40;0.70;;;16.20;99.90;;;;;;5013166;28;20021;-73
2022/07/02 05:37:52;;;;;;;2.65;0.60;;;16.30;99.90;;;;;;5024170;28;20065;-73
2022/07/02 05:40:18;;;;;;;1.60;0.60;;;16.40;99.90;;;;;;5008392;28;20036;-73
2022/07/02 05:42:44;;;;;;;1.75;0.80;;;16.50;99.90;;;;;;5024221;28;20045;-73
2022/07/02 05:45:10;;;;;;;2.67;0.70;;;16.60;99.90;;;;;;5023055;28;20505;-72
2022/07/02 05:47:35;;;;;;;2.78;0.70;;;16.70;99.90;;;;;;5012385;28;20075;-73
2022/07/02 05:50:01;;;;;;;1.80;0.70;;;16.80;99.90;;;;;;5023198;28;20037;-75
2022/07/02 05:52:27;;;;;;;1.85;0.70;;;16.80;99.90;;;;;;5025239;28;20067;-74
2022/07/02 05:54:52;;;;;;;2.95;0.60;;;16.80;99.90;;;;;;5017370;28;20148;-75
2022/07/02 05:57:18;;;;;;;1.65;0.70;;;16.90;99.90;;;;;;5010600;28;20067;-75
2022/07/02 05:59:44;;;;;;;3.42;0.52;;;17.20;99.90;;;;;;5041169;28;20056;-74
2022/07/02 06:02:09;;;;;;;1.85;0.70;;;17.40;99.90;;;;;;5025449;28;20037;-74
2022/07/02 06:04:35;;;;;;;1.00;0.50;;;17.60;99.90;;;;;;5025180;28;20688;-74
2022/07/02 06:09:45;;;;;;;1.75;0.57;;;17.90;99.90;;;;;;5017958;28;20249;-76
2022/07/02 06:12:11;;;;;;;1.77;0.40;;;17.80;99.90;;;;;;5026097;28;20029;-75
2022/07/02 06:14:37;;;;;;;1.20;0.50;;;18.10;99.90;;;;;;5025196;28;20029;-74
2022/07/02 06:17:02;;;;;;;2.45;0.68;;;18.30;99.90;;;;;;5024490;28;20117;-76
2022/07/02 06:19:28;;;;;;;1.33;0.65;;;18.40;99.90;;;;;;5000622;28;20090;-72
2022/07/02 06:21:54;;;;;;;1.48;0.40;;;18.50;99.90;;;;;;5024939;28;20040;-72
2022/07/02 06:24:19;;;;;;;2.17;0.50;;;18.60;99.90;;;;;;5003516;28;20166;-72
2022/07/02 06:26:45;;;;;;;1.65;0.45;;;18.60;99.90;;;;;;5020853;28;20160;-72
2022/07/02 06:29:11;;;;;;;2.05;0.60;;;18.80;99.90;;;;;;5029563;28;20030;-72
2022/07/02 06:31:37;;;;;;;1.63;0.40;;;18.70;99.90;;;;;;5016380;28;20056;-71
2022/07/02 06:34:03;;;;;;;2.15;0.50;;;19.10;99.90;;;;;;5027353;28;20159;-71
2022/07/02 06:36:29;;;;;;;1.63;0.30;;;19.20;99.90;;;;;;5015042;28;20033;-72
2022/07/02 06:38:55;;;;;;;2.17;0.47;;;19.50;99.90;;;;;;5026358;28;20400;-76
2022/07/02 06:44:06;;;;;;;0.90;0.30;;;19.50;99.90;;;;;;5012763;28;20394;-72
2022/07/02 06:46:36;;;;;;;1.45;0.30;;;19.90;99.90;;;;;;5027650;28;20036;-72
2022/07/02 06:49:02;;;;;;;2.40;0.40;;;20.20;99.90;;;;;;5025816;28;20482;-72
2022/07/02 06:51:28;;;;;;;1.67;0.30;;;20.20;99.90;;;;;;5007394;28;20029;-73
2022/07/02 06:53:59;;;;;;;1.20;0.30;;;20.30;99.90;;;;;;5025750;28;20087;-73
2022/07/02 06:56:29;;;;;;;2.25;0.30;;;20.30;99.90;;;;;;5026590;28;20043;-72
2022/07/02 06:58:56;;;;;;;1.70;0.30;;;20.40;99.90;;;;;;5011652;28;20312;-72
2022/07/02 07:01:22;;;;;;;1.38;0.30;;;19.80;99.90;;;;;;5014309;28;21883;-72
2022/07/02 07:03:48;;;;;;;0.80;0.20;;;20.00;99.90;;;;;;5015056;28;20128;-72
2022/07/02 07:06:13;;;;;;;0.60;0.20;;;20.30;99.90;;;;;;5025306;28;20041;-74
2022/07/02 07:08:39;;;;;;;0.60;0.20;;;20.70;99.90;;;;;;5018330;28;20030;-72
2022/07/02 07:11:05;;;;;;;1.13;0.20;;;20.80;99.90;;;;;;5015225;28;20021;-73
2022/07/02 07:13:30;;;;;;;1.83;0.20;;;20.90;99.90;;;;;;5016206;28;22108;-76
2022/07/02 07:15:56;;;;;;;1.13;0.20;;;21.10;99.90;;;;;;5012882;28;20037;-73
2022/07/02 07:18:22;;;;;;;1.88;0.20;;;21.30;99.90;;;;;;5004498;28;20045;-73
2022/07/02 07:20:49;;;;;;;0.82;0.10;;;21.20;99.90;;;;;;5018631;28;20037;-73
2022/07/02 07:23:15;;;;;;;0.50;0.10;;;21.50;99.90;;;;;;5013825;28;20029;-75
2022/07/02 07:25:41;;;;;;;0.55;0.20;;;21.60;99.90;;;;;;5004237;28;20165;-73
2022/07/02 07:28:06;;;;;;;2.25;0.20;;;21.00;99.90;;;;;;5013919;28;20042;-73
2022/07/02 07:30:32;;;;;;;0.90;0.10;;;21.10;99.90;;;;;;5027598;28;20102;-73
2022/07/02 07:32:58;;;;;;;1.00;0.20;;;21.20;99.90;;;;;;5012955;28;20423;-73
2022/07/02 07:35:23;;;;;;;1.80;0.20;;;21.80;99.90;;;;;;5028929;28;20036;-72
2022/07/02 07:37:57;;;;;;;1.13;0.20;;;21.00;99.90;;;;;;5027974;28;20037;-73
2022/07/02 07:40:23;;;;;;;0.70;0.20;;;21.00;99.90;;;;;;5024942;28;20026;-74
2022/07/02 07:42:49;;;;;;;1.73;0.10;;;21.20;99.90;;;;;;5018491;28;20202;-73
2022/07/02 07:45:15;;;;;;;0.75;0.10;;;22.00;99.90;;;;;;5014012;28;20579;-73
2022/07/02 07:47:40;;;;;;;0.75;0.10;;;22.10;99.90;;;;;;5017522;28;20036;-74
2022/07/02 07:50:07;;;;;;;0.77;0.10;;;21.20;99.90;;;;;;5024604;28;20079;-73
2022/07/02 07:52:32;;;;;;;1.92;0.10;;;21.40;99.90;;;;;;5026375;28;20039;-73
2022/07/02 07:54:58;;;;;;;0.30;0.10;;;21.50;99.90;;;;;;5034489;28;20029;-73
2022/07/02 07:57:24;;;;;;;0.68;0.10;;;21.80;99.90;;;;;;5025248;28;20029;-73
2022/07/02 07:59:49;;;;;;;0.63;0.10;;;21.30;99.90;;;;;;4995184;28;20037;-73
2022/07/02 08:02:15;;;;;;;0.90;0.10;;;22.10;99.90;;;;;;5017886;28;20072;-73
2022/07/02 08:04:41;;;;;;;0.40;0.08;;;22.40;99.90;;;;;;5025404;28;20037;-73
2022/07/02 08:07:07;;;;;;;0.95;0.10;;;22.40;99.90;;;;;;5001361;28;20493;-73
2022/07/02 08:09:32;;;;;;;0.60;0.10;;;22.80;99.90;;;;;;5007574;28;20025;-74
2022/07/02 08:11:58;;;;;;;1.33;0.10;;;22.00;99.90;;;;;;5007099;28;20393;-73
2022/07/02 08:14:24;;;;;;;0.50;0.05;;;22.30;99.90;;;;;;5040419;28;20037;-74
2022/07/02 08:16:50;;;;;;;1.67;0.10;;;22.90;99.90;;;;;;5025468;28;20018;-74
2022/07/02 08:19:16;;;;;;;0.20;0.03;;;22.90;99.90;;;;;;5024650;28;20110;-73
2022/07/02 08:21:42;;;;;;;2.70;0.20;;;23.40;99.90;;;;;;5016831;28;20120;-73
2022/07/02 08:24:08;;;;;;;0.95;0.10;;;23.10;99.90;;;;;;4996438;28;20041;-74
2022/07/02 08:26:33;;;;;;;0.43;0.10;;;22.90;99.90;;;;;;5012795;28;20033;-73
2022/07/02 08:28:59;;;;;;;0.50;0.10;;;23.30;99.90;;;;;;5026295;28;20034;-74
2022/07/02 08:31:25;;;;;;;1.02;0.10;;;23.40;99.90;;;;;;5025702;28;20529;-74
2022/07/02 08:33:52;;;;;;;2.05;0.20;;;22.70;99.90;;;;;;5004130;28;20104;-73
2022/07/02 08:36:18;;;;;;;0.43;0.10;;;22.80;99.90;;;;;;5014077;28;20041;-73
2022/07/02 08:38:43;;;;;;;0.30;0.10;;;23.20;99.90;;;;;;5029649;28;20085;-73
2022/07/02 08:41:12;;;;;;;0.63;0.00;;;22.90;99.90;;;;;;5008102;28;20441;-73
2022/07/02 08:43:41;;;;;;;0.50;0.00;;;23.80;99.90;;;;;;5014530;28;20045;-73
2022/07/02 08:46:07;;;;;;;2.28;0.10;;;23.70;99.90;;;;;;5026387;28;20053;-73
2022/07/02 08:48:33;;;;;;;1.50;0.10;;;23.90;99.90;;;;;;5025642;28;20044;-73
2022/07/02 08:51:00;;;;;;;0.90;0.10;;;23.90;99.90;;;;;;5026497;28;20024;-73
2022/07/02 08:53:26;;;;;;;0.22;0.00;;;24.10;99.90;;;;;;5027362;28;20037;-74
2022/07/02 08:55:54;;;;;;;0.43;0.00;;;24.20;99.90;;;;;;5018105;28;20041;-73
2022/07/02 08:58:20;;;;;;;0.60;0.08;;;24.00;99.90;;;;;;5026081;28;20044;-73
2022/07/02 09:00:48;;;;;;;0.65;0.10;;;23.70;99.90;;;;;;5026208;28;20040;-73
2022/07/02 09:03:14;;;;;;;0.50;0.10;;;23.70;99.90;;;;;;5011762;28;20186;-74
2022/07/02 09:05:42;;;;;;;0.38;0.10;;;24.30;99.90;;;;;;4999924;28;20406;-74
2022/07/02 09:08:09;;;;;;;0.50;0.10;;;23.70;99.90;;;;;;5024917;28;20084;-74
2022/07/02 09:10:37;;;;;;;0.32;0.03;;;24.10;99.90;;;;;;4995505;28;20126;-74
2022/07/02 09:13:03;;;;;;;0.40;0.00;;;24.50;99.90;;;;;;5011556;28;20090;-73
2022/07/02 09:15:30;;;;;;;0.63;0.10;;;24.30;99.90;;;;;;4999523;28;20473;-74
2022/07/02 09:17:55;;;;;;;0.93;0.10;;;23.80;99.90;;;;;;5014026;28;20033;-74
2022/07/02 09:20:22;;;;;;;1.63;0.10;;;23.90;99.90;;;;;;5012038;28;20040;-73
2022/07/02 09:22:50;;;;;;;1.65;0.10;;;23.60;99.90;;;;;;5023375;28;20053;-73
2022/07/02 09:25:20;;;;;;;0.47;0.00;;;24.40;99.90;;;;;;5024610;28;20040;-75
2022/07/02 09:27:55;;;;;;;0.68;0.03;;;23.90;99.90;;;;;;5016433;28;20029;-74
2022/07/02 09:30:21;;;;;;;1.70;0.10;;;24.00;99.90;;;;;;5016359;28;20044;-73
2022/07/02 09:32:47;;;;;;;1.40;0.10;;;24.00;99.90;;;;;;5023675;28;20025;-73
2022/07/02 09:35:21;;;;;;;0.32;0.00;;;24.30;99.90;;;;;;5012593;28;20033;-73
2022/07/02 09:37:48;;;;;;;1.02;0.10;;;24.50;99.90;;;;;;4994679;28;20025;-74
2022/07/02 09:40:14;;;;;;;0.85;0.15;;;24.90;99.90;;;;;;5024173;28;20033;-74
2022/07/02 09:42:43;;;;;;;1.38;0.10;;;24.40;99.90;;;;;;5024178;28;20454;-74
2022/07/02 09:45:10;;;;;;;1.52;0.10;;;24.50;99.90;;;;;;5025915;28;20046;-73
2022/07/02 09:47:44;;;;;;;1.77;0.10;;;24.90;99.90;;;;;;4998260;28;20155;-73
2022/07/02 09:50:11;;;;;;;0.63;0.08;;;23.70;99.90;;;;;;5025329;28;20090;-73
2022/07/02 09:52:53;;;;;;;0.85;0.03;;;24.90;99.90;;;;;;5014119;28;20570;-73
2022/07/02 09:55:24;;;;;;;0.30;0.00;;;25.40;99.90;;;;;;5008426;28;20164;-74
2022/07/02 09:58:01;;;;;;;0.70;0.05;;;25.10;99.90;;;;;;5014129;28;20088;-74
2022/07/02 10:00:41;;;;;;;2.15;0.10;;;25.60;99.90;;;;;;4995384;28;20041;-74
2022/07/02 10:03:07;;;;;;;0.80;0.10;;;25.70;99.90;;;;;;5007235;28;20041;-73
2022/07/02 10:05:33;;;;;;;0.93;0.10;;;25.10;99.90;;;;;;4995908;28;20053;-73
2022/07/02 10:08:02;;;;;;;0.95;0.00;;;25.80;99.90;;;;;;5024870;28;20096;-74
2022/07/02 10:10:38;;;;;;;0.70;0.10;;;25.50;99.90;;;;;;5025487;28;20033;-74
2022/07/02 10:13:10;;;;;;;0.75;0.13;;;25.60;99.90;;;;;;5000862;28;20064;-74
2022/07/02 10:15:41;;;;;;;0.57;0.10;;;25.70;99.90;;;;;;5040300;28;20021;-78
2022/07/02 10:18:08;;;;;;;0.38;0.00;;;26.20;99.90;;;;;;5025921;28;21521;-74
2022/07/02 10:20:34;;;;;;;1.40;0.10;;;25.80;99.90;;;;;;5024476;28;20088;-74
2022/07/02 10:23:03;;;;;;;0.80;0.05;;;25.60;99.90;;;;;;5011694;28;20110;-74
2022/07/02 10:25:29;;;;;;;1.42;0.20;;;26.10;99.90;;;;;;5010324;28;20453;-74
2022/07/02 10:27:55;;;;;;;1.25;0.00;;;26.40;99.90;;;;;;5023053;28;20033;-74
2022/07/02 10:30:25;;;;;;;0.93;0.00;;;26.50;99.90;;;;;;5024732;28;20041;-74
2022/07/02 10:32:54;;;;;;;;;;;26.40;99.90;;;;;;5006828;28;20054;-74
2022/07/02 10:35:21;;;;;;;1.20;0.10;;;26.40;99.90;;;;;;5021708;28;20338;-74
2022/07/02 10:37:47;;;;;;;0.40;0.10;;;25.50;99.90;;;;;;5007988;28;20405;-76
2022/07/02 10:40:18;;;;;;;1.13;0.20;;;24.80;99.90;;;;;;5011761;28;20034;-74
2022/07/02 10:42:48;;;;;;;0.50;0.10;;;24.20;99.90;;;;;;5023613;28;20033;-74
2022/07/02 10:45:19;;;;;;;0.85;0.10;;;24.90;99.90;;;;;;5009152;28;20039;-74
2022/07/02 10:48:06;;;;;;;0.52;0.00;;;25.50;99.90;;;;;;5012969;28;20036;-75
2022/07/02 10:50:35;;;;;;;1.17;0.00;;;25.70;99.90;;;;;;5009485;28;20060;-74
2022/07/02 10:53:18;;;;;;;0.87;0.00;;;25.10;99.90;;;;;;5014778;28;20052;-74
2022/07/02 10:55:55;;;;;;;0.40;0.00;;;25.80;99.90;;;;;;5023040;28;20276;-74
2022/07/02 10:58:23;;;;;;;0.70;0.00;;;26.50;99.90;;;;;;5000187;28;20037;-75
2022/07/02 11:00:49;;;;;;;1.95;0.05;;;26.40;99.90;;;;;;5015370;28;20416;-74
2022/07/02 11:03:16;;;;;;;0.30;0.00;;;26.10;99.90;;;;;;5010624;28;20164;-74
2022/07/02 11:06:02;;;;;;;0.10;0.00;;;26.40;99.90;;;;;;5011993;28;20073;-74
2022/07/02 11:08:46;;;;;;;0.68;0.15;;;27.30;99.90;;;;;;5000974;28;20033;-73
2022/07/02 11:11:17;;;;;;;1.20;0.00;;;26.50;99.90;;;;;;5027611;28;21092;-74
2022/07/02 11:14:02;;;;;;;0.20;0.00;;;26.00;99.90;;;;;;5017207;28;20120;-74
2022/07/02 11:16:40;;;;;;;1.50;0.10;;;24.70;99.90;;;;;;5014767;28;20021;-74
2022/07/02 11:19:20;;;;;;;0.50;0.00;;;24.50;99.90;;;;;;5010727;28;20084;-74
2022/07/02 11:21:50;;;;;;;0.38;0.00;;;25.50;99.90;;;;;;5014377;28;20018;-74
2022/07/02 11:24:20;;;;;;;0.30;0.08;;;26.10;99.90;;;;;;5023493;28;20461;-74
2022/07/02 11:26:46;;;;;;;1.33;0.00;;;25.80;99.90;;;;;;5020618;28;20053;-73
2022/07/02 11:29:12;;;;;;;0.80;0.00;;;25.70;99.90;;;;;;5020147;28;20480;-74
2022/07/02 11:31:42;;;;;;;0.20;0.00;;;26.00;99.90;;;;;;5028895;28;20083;-74
2022/07/02 11:34:08;;;;;;;0.45;0.03;;;25.80;99.90;;;;;;5020739;28;20043;-74
2022/07/02 11:36:37;;;;;;;0.57;0.00;;;25.10;99.90;;;;;;5029096;28;20040;-74
2022/07/02 11:39:11;;;;;;;0.30;0.00;;;25.20;99.90;;;;;;5015999;28;20461;-74
2022/07/02 11:41:37;;;;;;;1.30;0.00;;;25.50;99.90;;;;;;5019856;28;20037;-74
2022/07/02 11:44:17;;;;;;;0.30;0.00;;;26.30;99.90;;;;;;5016370;28;20052;-73
2022/07/02 11:46:44;;;;;;;0.43;0.00;;;26.80;99.90;;;;;;5013470;28;20086;-73
2022/07/02 11:49:15;;;;;;;0.35;0.00;;;27.20;99.90;;;;;;5009612;28;20426;-76
2022/07/02 11:51:41;;;;;;;0.35;0.00;;;27.20;99.90;;;;;;5016798;28;20970;-74
2022/07/02 11:54:09;;;;;;;0.63;0.00;;;26.60;99.90;;;;;;5018796;28;20110;-74
2022/07/02 11:56:40;;;;;;;0.32;0.00;;;26.60;99.90;;;;;;5027743;28;20029;-74
2022/07/02 11:59:10;;;;;;;1.45;0.00;;;26.20;99.90;;;;;;5043595;28;20041;-74
2022/07/02 12:01:38;;;;;;;0.47;0.00;;;26.30;99.90;;;;;;5013708;28;20374;-74
2022/07/02 12:04:06;;;;;;;0.50;0.00;;;25.80;99.90;;;;;;5012112;28;20365;-74
2022/07/02 12:06:36;;;;;;;0.60;0.00;;;25.60;99.90;;;;;;5001754;28;21745;-74
2022/07/02 12:09:06;;;;;;;0.63;0.00;;;25.80;99.90;;;;;;5016887;28;20030;-74
2022/07/02 12:11:34;;;;;;;0.85;0.00;;;25.40;99.90;;;;;;5011098;28;20037;-74
2022/07/02 12:14:00;;;;;;;0.57;0.00;;;25.80;99.90;;;;;;5012346;28;20037;-74
2022/07/02 12:16:27;;;;;;;0.47;0.00;;;26.30;99.90;;;;;;5017682;28;20116;-74
2022/07/02 12:19:06;;;;;;;0.95;0.00;;;27.30;99.90;;;;;;5013770;28;20064;-74
2022/07/02 12:21:37;;;;;;;0.05;0.00;;;26.70;99.90;;;;;;5025050;28;20041;-74
2022/07/02 12:24:24;;;;;;;0.57;0.00;;;26.90;99.90;;;;;;5025900;28;20041;-74
2022/07/02 12:26:55;;;;;;;0.63;0.00;;;26.60;99.90;;;;;;5007924;28;20042;-74
2022/07/02 12:29:53;;;;;;;0.13;0.00;;;26.00;99.90;;;;;;5000223;28;20083;-74
2022/07/02 12:32:27;;;;;;;0.28;0.00;;;26.40;99.90;;;;;;5007581;28;20033;-74
2022/07/02 12:34:57;;;;;;;0.55;0.00;;;25.80;99.90;;;;;;4994504;28;20044;-74
2022/07/02 12:37:25;;;;;;;0.38;0.00;;;25.90;99.90;;;;;;5002076;28;20400;-73
2022/07/02 12:40:02;;;;;;;0.45;0.00;;;26.40;99.90;;;;;;5024233;28;20037;-74
2022/07/02 12:42:31;;;;;;;0.70;0.00;;;26.00;99.90;;;;;;5024987;28;20037;-74
2022/07/02 12:45:05;;;;;;;0.68;0.00;;;26.60;99.90;;;;;;5025397;28;20036;-73
2022/07/02 12:47:33;;;;;;;0.40;0.00;;;26.70;99.90;;;;;;5016773;28;21922;-74
2022/07/02 12:50:02;;;;;;;0.32;0.00;;;26.90;99.90;;;;;;5025590;28;20477;-74
2022/07/02 12:52:30;;;;;;;0.40;0.00;;;26.90;99.90;;;;;;5010872;28;20036;-74
2022/07/02 12:54:59;;;;;;;0.30;0.00;;;26.70;99.90;;;;;;5024653;28;20087;-74
2022/07/02 12:57:25;;;;;;;0.63;0.00;;;26.60;99.90;;;;;;5020646;28;20040;-74